createdAt,value
2022-09-23T00:02:07.329Z,101713.41
2022-09-23T00:07:08.972Z,101712.28
2022-09-23T00:12:10.297Z,101702.19
2022-09-23T00:17:11.917Z,101707.13
2022-09-23T00:22:13.692Z,101701.72
2022-09-23T00:27:15.042Z,101700.91
2022-09-23T00:32:16.386Z,101691.28
2022-09-23T00:37:17.837Z,101680.13
2022-09-23T00:42:20.557Z,101679.00
2022-09-23T00:47:31.261Z,101682.44
2022-09-23T00:52:33.405Z,101674.94
2022-09-23T00:57:37.100Z,101676.31
2022-09-23T01:02:39.483Z,101668.44
2022-09-23T01:07:40.867Z,101667.16
2022-09-23T01:12:42.125Z,101662.22
2022-09-23T01:17:43.561Z,101656.19
2022-09-23T01:22:54.041Z,101652.06
2022-09-23T01:28:17.818Z,101660.81
2022-09-23T01:33:24.968Z,101651.88
2022-09-23T01:38:32.467Z,101656.53
2022-09-23T01:43:49.847Z,101654.28
2022-09-23T01:48:53.878Z,101641.03
2022-09-23T01:54:03.344Z,101639.16
2022-09-23T01:59:34.002Z,101648.47
2022-09-23T02:04:39.570Z,101639.06
2022-09-23T02:09:42.917Z,101635.63
2022-09-23T02:14:44.167Z,101633.13
2022-09-23T02:19:47.849Z,101633.66
2022-09-23T02:24:49.443Z,101629.59
2022-09-23T02:29:51.201Z,101616.97
2022-09-23T02:34:55.555Z,101611.00
2022-09-23T02:40:06.031Z,101607.44
2022-09-23T02:45:07.599Z,101594.88
2022-09-23T02:50:09.468Z,101599.31
2022-09-23T02:55:11.995Z,101587.34
2022-09-23T03:00:13.563Z,101589.63
2022-09-23T03:05:31.707Z,101578.50
2022-09-23T03:10:36.083Z,101574.16
2022-09-23T03:15:59.552Z,101575.25
2022-09-23T03:21:04.070Z,101569.53
2022-09-23T03:26:08.440Z,101572.00
2022-09-23T03:31:12.068Z,101559.97
2022-09-23T03:36:34.093Z,101559.66
2022-09-23T03:41:38.792Z,101562.16
2022-09-23T03:46:40.475Z,101557.19
2022-09-23T03:51:44.671Z,101552.75
2022-09-23T03:56:49.709Z,101549.69
2022-09-23T04:01:51.129Z,101544.09
2022-09-23T04:06:52.445Z,101539.94
2022-09-23T04:11:54.043Z,101540.81
2022-09-23T04:16:55.426Z,101543.53
2022-09-23T04:21:56.899Z,101535.47
2022-09-23T04:26:58.254Z,101535.47
2022-09-23T04:31:59.721Z,101535.06
2022-09-23T04:37:01.092Z,101538.31
2022-09-23T04:42:03.728Z,101538.50
2022-09-23T04:47:05.174Z,101531.66
2022-09-23T04:52:06.633Z,101532.44
2022-09-23T04:57:11.046Z,101531.38
2022-09-23T05:02:12.669Z,101535.69
2022-09-23T05:07:14.044Z,101534.19
2022-09-23T05:12:15.367Z,101534.69
2022-09-23T05:17:16.750Z,101532.22
2022-09-23T05:22:18.099Z,101527.72
2022-09-23T05:27:19.714Z,101521.94
2022-09-23T05:32:21.390Z,101520.91
2022-09-23T05:37:23.228Z,101526.53
2022-09-23T05:42:24.514Z,101525.03
2022-09-23T05:47:25.805Z,101529.63
2022-09-23T05:52:27.313Z,101527.19
2022-09-23T05:57:29.327Z,101533.59
2022-09-23T06:02:30.717Z,101524.72
2022-09-23T06:07:32.597Z,101524.59
2022-09-23T06:12:35.242Z,101524.47
2022-09-23T06:17:36.581Z,101532.69
2022-09-23T06:22:40.095Z,101525.50
2022-09-23T06:27:41.668Z,101519.09
2022-09-23T06:32:47.619Z,101524.59
2022-09-23T06:37:49.256Z,101520.28
2022-09-23T06:42:57.699Z,101519.59
2022-09-23T06:47:59.055Z,101523.97
2022-09-23T06:53:00.540Z,101529.31
2022-09-23T06:58:02.036Z,101534.69
2022-09-23T07:03:10.075Z,101537.56
2022-09-23T07:08:11.363Z,101527.44
2022-09-23T07:13:16.166Z,101528.44
2022-09-23T07:18:23.796Z,101537.44
2022-09-23T07:23:25.468Z,101534.00
2022-09-23T07:28:28.955Z,101529.00
2022-09-23T07:33:32.943Z,101525.84
2022-09-23T07:38:35.117Z,101529.66
2022-09-23T07:43:37.122Z,101524.88
2022-09-23T07:48:38.867Z,101520.25
2022-09-23T07:53:40.199Z,101515.72
2022-09-23T07:58:41.477Z,101531.72
2022-09-23T08:03:45.370Z,101536.53
2022-09-23T08:08:51.161Z,101532.97
2022-09-23T08:13:54.436Z,101527.00
2022-09-23T08:18:55.797Z,101522.97
2022-09-23T08:23:57.134Z,101529.41
2022-09-23T08:28:58.418Z,101518.19
2022-09-23T08:33:59.834Z,101522.03
2022-09-23T08:39:01.533Z,101522.28
2022-09-23T08:44:04.524Z,101513.69
2022-09-23T08:49:07.535Z,101513.50
2022-09-23T08:54:11.054Z,101515.50
2022-09-23T08:59:14.853Z,101521.16
2022-09-23T09:04:19.108Z,101516.81
2022-09-23T09:09:36.454Z,101506.13
2022-09-23T09:14:48.217Z,101504.09
2022-09-23T09:19:51.921Z,101493.97
2022-09-23T09:24:57.469Z,101490.72
2022-09-23T09:30:02.143Z,101487.66
2022-09-23T09:35:18.376Z,101474.94
2022-09-23T09:40:20.668Z,101469.97
2022-09-23T09:45:33.520Z,101466.47
2022-09-23T09:50:52.269Z,101472.06
2022-09-23T09:56:04.997Z,101463.72
2022-09-23T10:01:07.644Z,101456.66
2022-09-23T10:06:18.528Z,101452.78
2022-09-23T10:11:19.911Z,101435.53
2022-09-23T10:16:21.398Z,101436.69
2022-09-23T10:21:28.099Z,101436.94
2022-09-23T10:26:32.460Z,101432.50
2022-09-23T10:31:35.338Z,101437.91
2022-09-23T10:36:38.357Z,101424.13
2022-09-23T10:42:07.324Z,101429.44
2022-09-23T10:47:11.754Z,101426.69
2022-09-23T10:52:36.151Z,101417.16
2022-09-23T10:58:05.082Z,101424.16
2022-09-23T11:03:09.358Z,101423.25
2022-09-23T11:08:22.964Z,101421.50
2022-09-23T11:13:40.201Z,101422.38
2022-09-23T11:18:53.120Z,101421.47
2022-09-23T11:24:16.226Z,101411.91
2022-09-23T11:29:20.560Z,101417.22
2022-09-23T11:34:40.781Z,101411.06
2022-09-23T11:40:01.162Z,101402.28
2022-09-23T11:45:10.679Z,101411.84
2022-09-23T11:50:23.806Z,101403.25
2022-09-23T11:55:27.560Z,101401.53
2022-09-23T12:00:35.663Z,101387.63
2022-09-23T12:05:45.306Z,101381.56
2022-09-23T12:10:55.842Z,101378.94
2022-09-23T12:16:14.622Z,101366.78
2022-09-23T12:21:46.177Z,101360.66
2022-09-23T12:26:51.729Z,101365.88
2022-09-23T12:31:53.405Z,101363.25
2022-09-23T12:37:02.378Z,101364.09
2022-09-23T12:42:05.300Z,101346.69
2022-09-23T12:47:12.868Z,101344.94
2022-09-23T12:52:17.325Z,101337.97
2022-09-23T12:57:36.981Z,101336.19
2022-09-23T13:02:43.133Z,101331.00
2022-09-23T13:07:49.182Z,101327.50
2022-09-23T13:12:51.758Z,101329.22
2022-09-23T13:17:53.192Z,101326.63
2022-09-23T13:22:55.526Z,101317.03
2022-09-23T13:27:58.933Z,101312.69
2022-09-23T13:33:11.081Z,101306.56
2022-09-23T13:38:20.274Z,101312.63
2022-09-23T13:43:31.863Z,101312.59
2022-09-23T13:48:33.746Z,101310.00
2022-09-23T13:53:38.866Z,101301.28
2022-09-23T13:58:42.363Z,101310.00
2022-09-23T14:03:44.214Z,101297.00
2022-09-23T14:08:47.459Z,101289.88
2022-09-23T14:13:54.191Z,101282.03
2022-09-23T14:18:56.519Z,101289.03
2022-09-23T14:24:07.821Z,101276.78
2022-09-23T14:29:19.404Z,101271.69
2022-09-23T14:34:39.300Z,101268.28
2022-09-23T14:39:41.264Z,101268.28
2022-09-23T14:44:42.680Z,101261.25
2022-09-23T14:50:08.357Z,101256.94
2022-09-23T14:55:15.396Z,101262.19
2022-09-23T15:00:18.122Z,101263.03
2022-09-23T15:05:20.910Z,101253.44
2022-09-23T15:10:31.118Z,101261.34
2022-09-23T15:15:32.780Z,101250.03
2022-09-23T15:20:35.117Z,101251.84
2022-09-23T15:25:40.620Z,101257.88
2022-09-23T15:30:42.567Z,101258.75
2022-09-23T15:35:48.641Z,101255.28
2022-09-23T15:40:50.282Z,101254.47
2022-09-23T15:45:56.061Z,101255.31
2022-09-23T15:51:02.510Z,101253.59
2022-09-23T15:56:04.373Z,101253.59
2022-09-23T16:01:07.614Z,101251.88
2022-09-23T16:06:12.082Z,101257.13
2022-09-23T16:11:18.178Z,101250.13
2022-09-23T16:16:22.948Z,101250.13
2022-09-23T16:21:28.421Z,101251.91
2022-09-23T16:26:39.169Z,101256.25
2022-09-23T16:31:45.561Z,101258.00
2022-09-23T16:36:46.958Z,101262.38
2022-09-23T16:41:49.860Z,101266.69
2022-09-23T16:46:51.522Z,101287.47
2022-09-23T16:51:54.038Z,101296.97
2022-09-23T16:56:55.818Z,101311.69
2022-09-23T17:02:15.612Z,101312.50
2022-09-23T17:07:22.886Z,101319.25
2022-09-23T17:12:29.748Z,101328.72
2022-09-23T17:17:35.401Z,101326.94
2022-09-23T17:22:36.805Z,101325.13
2022-09-23T17:27:38.685Z,101323.34
2022-09-23T17:32:40.085Z,101322.41
2022-09-23T17:37:44.010Z,101315.31
2022-09-23T17:42:46.554Z,101321.41
2022-09-23T17:47:55.280Z,101308.34
2022-09-23T17:52:58.317Z,101309.91
2022-09-23T17:58:00.437Z,101302.97
2022-09-23T18:03:01.896Z,101308.22
2022-09-23T18:08:06.021Z,101303.84
2022-09-23T18:13:07.784Z,101304.72
2022-09-23T18:18:14.662Z,101302.94
2022-09-23T18:23:18.973Z,101297.72
2022-09-23T18:28:22.236Z,101297.66
2022-09-23T18:33:24.227Z,101304.59
2022-09-23T18:38:31.056Z,101292.38
2022-09-23T18:43:39.026Z,101302.81
2022-09-23T18:49:00.259Z,101296.63
2022-09-23T18:54:03.117Z,101299.19
2022-09-23T18:59:07.498Z,101293.94
2022-09-23T19:04:08.907Z,101298.25
2022-09-23T19:09:12.085Z,101294.78
2022-09-23T19:14:16.494Z,101292.13
2022-09-23T19:19:19.038Z,101293.91
2022-09-23T19:24:22.030Z,101293.94
2022-09-23T19:29:24.815Z,101284.44
2022-09-23T19:34:29.519Z,101283.56
2022-09-23T19:39:31.837Z,101283.53
2022-09-23T19:44:33.297Z,101280.97
2022-09-23T19:49:42.144Z,101274.84
2022-09-23T19:54:44.254Z,101282.66
2022-09-23T19:59:46.104Z,101279.13
2022-09-23T20:04:47.521Z,101284.31
2022-09-23T20:09:49.117Z,101280.84
2022-09-23T20:14:51.748Z,101276.53
2022-09-23T20:19:53.239Z,101277.41
2022-09-23T20:24:57.914Z,101266.94
2022-09-23T20:30:00.504Z,101266.84
2022-09-23T20:35:01.958Z,101249.47
2022-09-23T20:40:03.747Z,101251.19
2022-09-23T20:45:07.178Z,101245.94
2022-09-23T20:50:08.756Z,101245.94
2022-09-23T20:55:10.142Z,101233.75
2022-09-23T21:00:12.322Z,101236.34
2022-09-23T21:05:14.550Z,101234.59
2022-09-23T21:10:15.992Z,101234.59
2022-09-23T21:15:21.709Z,101235.44
2022-09-23T21:20:23.041Z,101229.34
2022-09-23T21:25:29.031Z,101226.75
2022-09-23T21:30:30.983Z,101222.44
2022-09-23T21:35:32.515Z,101231.06
2022-09-23T21:40:52.834Z,101224.09
2022-09-23T21:45:56.925Z,101220.75
2022-09-23T21:50:59.251Z,101215.56
2022-09-23T21:56:05.157Z,101219.84
2022-09-23T22:01:26.774Z,101219.88
2022-09-23T22:06:28.595Z,101222.47
2022-09-23T22:11:50.210Z,101220.69
2022-09-23T22:16:52.253Z,101223.25
2022-09-23T22:21:54.081Z,101219.72
2022-09-23T22:26:55.513Z,101208.47
2022-09-23T22:32:15.544Z,101213.66
2022-09-23T22:37:17.947Z,101212.78
2022-09-23T22:42:22.455Z,101207.59
2022-09-23T22:47:24.267Z,101204.13
2022-09-23T22:52:25.591Z,101201.53
2022-09-23T22:57:26.986Z,101194.59
2022-09-23T23:02:28.374Z,101192.88
2022-09-23T23:07:29.798Z,101192.88
2022-09-23T23:12:31.141Z,101192.88
2022-09-23T23:17:33.060Z,101189.41
2022-09-23T23:22:34.530Z,101192.81
2022-09-23T23:27:36.024Z,101185.00
2022-09-23T23:32:37.377Z,101180.69
2022-09-23T23:37:38.768Z,101173.75
2022-09-23T23:42:40.321Z,101166.78
2022-09-23T23:47:41.635Z,101171.09
2022-09-23T23:52:42.963Z,101176.31
2022-09-23T23:57:44.243Z,101166.78
